Strona główna
METAR-TAF:

METAR-TAF

Lotnisko :

Wooster, Ohio, Stany Zjednoczone

Szerokość geograficzna: 40-52-23N, Długość geograficzna: 081-53-12W, wysokość: 346 m

Aktualna obserwacja pogody

Raport powstał 1 godzina i 8 minut temu, godzina 07:56 UTC
Wiatr 11 kt od zachodnio-północny zachód w porywach dochodzący do 21 kt
Temperatura 0°C
Wilgotność 86%
Ciśnienie 1008 hPa
Widzialność: 14.5 km
Zachmurzenie całkowite na wysokości 1600 ft

METAR: KBJJ 150756Z AUTO 30011G21KT 9SM OVC016 00/M02 A2977 RMK AO2 PK WND 29026/0730 UPB11E13RAB13E26SNE11 SLP091 P0000 T00001017

czas: 04:04 (09:04 UTC)


TAF: brakujący

Obserwacja i prognoza pogody dla ponad 4000 lotnisk (raport METAR i TAF).

Dostępne stacje oznaczono żółtymi i czerwonymi punktami na mapie.

Najedź kursorem aby zobaczyć nazwę stacji.

Kliknij aby zobaczyć obserwacje i prognozy pogody.

Aby zmienić mapę: kliknij na zielony przycisk z czarnym krzyżykiem, aby powiększyć; na zielony przycisk z myślnikiem, aby pomniejszyć; na zielone strzałki, aby przejść do map sąsiednich.


METAR-TAF: